• Join FlightAware (Why Join?)
  • Login
  • US Flag 
02:58PM EDT


 

Airport Tracker/Info


-or-


 

Live Flight TrackerFlight Track Log ✈ UAL3818 ✈ 26-May-2013 ✈ KEWR - KGRR

Flight Track Log - Related Links

Times and Time Zones

All times are in EDT time to prevent confusion due to time zone crossing. See the UAL3818 flight status page for this flight to view local times or setup timezone preferences in your user account.

Time Position Orientation Groundspeed Altitude Reporting Facility
EDT Latitude Longitude Course Direction KTS MPH feet Rate Location/Type
04:25PM 40.7000 -74.2167 316° Northwest 172 198 1,600  Level New York TRACON
04:26PM 40.7167 -74.2833 288° West 226 260 3,300 2,160 Climbing New York TRACON
04:27PM 40.8955 -74.4139 319° Northwest  Level FlightAware Approximate
04:27PM 40.7667 -74.3333 323° Northwest 223 257 6,000  Level New York TRACON
04:28PM 40.9676 -74.4962 319° Northwest  Level FlightAware Approximate
04:28PM 40.8569 -74.4283 321° Northwest 249 287 10,300  Level New York Center
04:29PM 41.0376 -74.5816 316° Northwest  Level FlightAware Approximate
04:29PM 40.9158 -74.4836 325° Northwest 255 293 11,400  Level New York Center
04:30PM 41.1060 -74.6695 316° Northwest  Level FlightAware Approximate
04:30PM 40.9825 -74.5506 323° Northwest 289 333 12,800  Level New York Center
04:31PM 41.0531 -74.6150 325° Northwest 299 344 14,100 1,500 Climbing New York Center
04:32PM 41.1239 -74.6850 323° Northwest 311 358 15,800 1,500 Climbing New York Center
04:33PM 41.1725 -74.7817 304° West 311 358 17,100 1,140 Climbing New York Center
04:34PM 41.2153 -74.8778 301° West 328 377 18,100 1,080 Climbing New York Center
04:35PM 41.2614 -74.9856 300° West 333 383 19,300 900 Climbing New York Center
04:36PM 41.3114 -75.1019 300° West 345 397 20,000 300 Climbing New York Center
04:37PM 41.3631 -75.2214 300° West 357 411 20,000  Level New York Center
04:38PM 41.4147 -75.3408 300° West 370 426 20,000 420 Level New York Center
04:39PM 41.4992 -75.4214 324° Northwest 362 417 20,900 900 Climbing New York Center
04:40PM 41.5856 -75.4997 326° Northwest 367 422 21,900 1,020 Climbing New York Center
04:41PM 41.6700 -75.5722 327° Northwest 367 422 23,000 1,020 Climbing New York Center
04:42PM 41.7194 -75.6925 299° West 354 407 24,000 1,080 Climbing New York Center
04:43PM 41.7619 -75.8208 294° West 366 421 25,200 1,260 Climbing New York Center
04:44PM 41.8003 -75.9461 292° West 366 421 26,600 1,260 Climbing New York Center
04:45PM 41.8278 -76.0736 286° West 366 421 27,800 1,140 Climbing New York Center
04:46PM 41.8556 -76.2011 286° West 361 415 28,900 1,020 Climbing New York Center
04:47PM 41.8828 -76.3286 286° West 361 415 29,900 1,020 Climbing New York Center
04:48PM 41.9144 -76.4539 289° West 361 415 31,000 1,080 Climbing New York Center
04:51PM 41.9775 -76.7533 286° West 373 429 33,400 900 Climbing Cleveland Center
04:52PM 42.0047 -76.8831 286° West 373 429 34,000 300 Climbing Cleveland Center
04:53PM 42.0339 -77.0186 286° West 373 429 34,000  Level Cleveland Center
04:54PM 42.0653 -77.1567 287° West 373 429 34,000  Level Cleveland Center
04:55PM 42.0944 -77.2950 286° West 379 436 34,000  Level Cleveland Center
04:56PM 42.1233 -77.4336 286° West 379 436 34,000  Level Cleveland Center
04:57PM 42.1519 -77.5667 286° West 379 436 34,000  Level Cleveland Center
04:58PM 42.1803 -77.7025 286° West 374 430 34,000  Level Cleveland Center
04:59PM 42.2064 -77.8331 285° West 374 430 34,000  Level Cleveland Center
05:00PM 42.2347 -77.9722 285° West 374 430 34,000  Level Cleveland Center
05:01PM 42.2628 -78.1114 285° West 374 430 34,000  Level Cleveland Center
05:02PM 42.2906 -78.2450 286° West 374 430 34,000  Level Cleveland Center
05:03PM 42.3183 -78.3789 286° West 374 430 34,000  Level Cleveland Center
05:04PM 42.3439 -78.5183 284° West 374 430 34,000  Level Cleveland Center
05:05PM 42.3711 -78.6525 285° West 374 430 34,000  Level Cleveland Center
05:06PM 42.3983 -78.7894 285° West 374 430 34,000  Level Cleveland Center
05:07PM 42.4233 -78.9264 284° West 374 430 34,000  Level Cleveland Center
05:08PM 42.4481 -79.0608 284° West 374 430 34,000  Level Cleveland Center
05:09PM 42.4747 -79.1953 285° West 374 430 34,000  Level Cleveland Center
05:10PM 42.4972 -79.3328 283° West 374 430 34,000  Level Cleveland Center
05:11PM 42.5028 -79.4736 273° West 374 430 34,000  Level Cleveland Center
05:12PM 42.5103 -79.6200 274° West 374 430 34,000  Level Cleveland Center
05:13PM 42.5156 -79.7578 273° West 380 437 34,000  Level Cleveland Center
05:14PM 42.5228 -79.9014 274° West 380 437 34,000  Level Cleveland Center
05:15PM 42.5256 -80.0422 272° West 385 443 34,000  Level Cleveland Center
05:16PM 42.5344 -80.1858 275° West 385 443 34,000  Level Cleveland Center
05:17PM 42.5369 -80.3239 271° West 380 437 34,000  Level Cleveland Center
05:18PM 42.5456 -80.4706 275° West 385 443 34,000  Level Cleveland Center
05:19PM 42.5497 -80.6086 272° West 378 435 34,000  Level Cleveland Center
05:20PM 42.5539 -80.7494 272° West 378 435 34,000 -240 Level Cleveland Center
05:21PM 42.5597 -80.8906 273° West 383 441 33,600 -720 Descending Cleveland Center
05:22PM 42.5678 -81.0286 275° West 377 434 32,600 -840 Descending Cleveland Center
05:23PM 42.5817 -81.1725 278° West 377 434 32,000 -300 Descending Cleveland Center
05:24PM 42.5914 -81.2994 276° West 382 440 32,000  Level Cleveland Center
05:25PM 42.6028 -81.4406 276° West 387 445 32,000  Level Cleveland Center
05:26PM 42.6164 -81.5875 277° West 393 452 32,000  Level Cleveland Center
05:27PM 42.6275 -81.7289 276° West 388 447 32,000  Level Cleveland Center
05:28PM 42.6406 -81.8786 277° West 388 447 32,000  Level Cleveland Center
05:29PM 42.6514 -82.0228 276° West 393 452 32,000 -60 Level Cleveland Center
05:30PM 42.6639 -82.1756 276° West 393 452 31,900 -660 Descending Cleveland Center
05:31PM 42.6742 -82.3200 276° West 393 452 30,700 -1,380 Descending Cleveland Center
05:32PM 42.6867 -82.4586 277° West 388 447 29,200 -1,500 Descending Cleveland Center
05:33PM 42.6967 -82.6003 276° West 388 447 27,800 -1,440 Descending Cleveland Center
05:34PM 42.7067 -82.7419 276° West 388 447 26,400 -1,440 Descending Cleveland Center
05:35PM 42.7183 -82.8919 276° West 388 447 25,000 -1,440 Descending Cleveland Center
05:36PM 42.7278 -83.0450 275° West 400 460 23,600 -1,500 Descending Cleveland Center
05:37PM 42.7392 -83.1953 276° West 407 468 22,100 -840 Descending Cleveland Center
05:38PM 42.7481 -83.3428 275° West 407 468 22,000 -60 Descending Cleveland Center
05:39PM 42.7592 -83.4817 276° West 393 452 22,000  Level Cleveland Center
05:40PM 42.7681 -83.6294 275° West 388 447 22,000 -300 Level Cleveland Center
05:41PM 42.7786 -83.7769 276° West 388 447 21,400 -1,200 Descending Cleveland Center
05:42PM 42.7889 -83.9275 275° West 393 452 19,700 -1,800 Descending Cleveland Center
05:43PM 42.7972 -84.0694 275° West 387 445 17,900 -1,680 Descending Cleveland Center
05:44PM 42.8056 -84.2058 275° West 382 440 16,400 -1,620 Descending Cleveland Center
05:45PM 42.8178 -84.3453 277° West 377 434 14,700 -1,680 Descending Cleveland Center
05:46PM 42.8194 -84.4842 271° West 377 434 13,100 -1,500 Descending Cleveland Center
05:46PM 42.8278 -84.5389 282° West 362 417 12,500 -1,380 Descending Chicago Center
05:47PM 42.8356 -84.6708 275° West 354 407 11,100 -1,440 Descending Chicago Center
05:48PM 42.8431 -84.8017 275° West 298 343 9,600 -1,440 Descending Chicago Center
05:49PM 42.8453 -84.9022 272° West 274 315 8,200 -840 Descending Chicago Center
05:50PM 42.8361 -85.0050 263° West 272 313 7,900 -660 Descending Chicago Center
05:51PM 42.8292 -85.1069 265° West 272 313 6,900 -1,020 Descending Chicago Center
05:52PM 42.8242 -85.2075 266° West 268 308 5,900 -960 Descending Chicago Center
05:53PM 42.8194 -85.3067 266° West 265 305 5,000 -480 Descending Chicago Center
05:54PM 42.8144 -85.4036 266° West 258 297 5,000  Level Chicago Center
05:55PM 42.8039 -85.4964 261° West 252 290 5,000 -360 Level Chicago Center
05:56PM 42.7867 -85.5989 257° West 236 272 4,300 -840 Descending Chicago Center
05:57PM 42.8167 -85.6542 307° West 238 274 3,400 -1,020 Descending Chicago Center
05:58PM 42.8647 -85.6336 17° North 208 239 2,300 -1,080 Descending Chicago Center